Terminal Aerodrome Forecast
Issued by NWS

Home | Current Version | Previous Version | Text Only | Print | Product List | Glossary On
Versions: 1 2 3 4 5 6 7 8 9 10 11 12 13 14 15 16 17 18 19 20 21 22
000
FTUS44 KOHX 260500
TAFCKV
TAF
KCKV 260532Z 2606/2706 32013G23KT P6SM BKN008 OVC020
      TEMPO 2608/2611 -RASN
     FM261100 33014G24KT P6SM -SN OVC008
     FM261300 32010G20KT P6SM BKN025 OVC050=

USA.gov is the U.S. government's official web portal to all federal, state and local government web resources and services.